• Join FlightAware (Why Join?)
  • Login
  • US Flag GB Flag 
18:33 EST


 

Airport Tracker/Info


-or-


 

Live Flight TrackerFlight Track Log ✈ GGN7280 ✈ 11-Jul-2013 ✈ CYYZ - KALB

Flight Track Log - Related Links

Times and Time Zones

All times are in EDT time to prevent confusion due to time zone crossing. See the GGN7280 flight status page for this flight to view local times or setup timezone preferences in your user account.

Time Position Orientation Groundspeed Altitude Reporting Facility
EDT Latitude Longitude Course Direction KTS MPH feet Rate Location/Type
09:56 43.6500 -79.6167 75° East 10 12 600  Level Toronto Center
09:57 43.6667 -79.5333 75° East 170 196 2,200 1,750 Climbing Toronto Center
09:58 43.6500 -79.4667 109° East 170 196 4,100 900 Climbing Toronto Center
09:59 43.6167 -79.4000 125° Southeast 230 265 4,000 350 Descending Toronto Center
10:00 43.5833 -79.3167 119° Southeast 250 288 4,800 1,000 Climbing Toronto Center
10:01 43.5500 -79.2500 125° Southeast 230 265 6,000 900 Climbing Toronto Center
10:02 43.5167 -79.1500 115° Southeast 240 276 6,600 1,050 Climbing Toronto Center
10:03 43.5000 -79.0833 109° East 220 253 8,100 700 Climbing Toronto Center
10:04 43.4667 -78.9833 115° Southeast 250 288 8,000 -50 Descending Toronto Center
10:05 43.4167 -78.9000 130° Southeast 270 311 8,000  Level Toronto Center
10:06 43.3833 -78.8000 115° Southeast 280 322 8,000 550 Level Toronto Center
10:07 43.3333 -78.7333 136° Southeast 270 311 9,100 1,750 Climbing Toronto Center
10:08 43.3000 -78.6500 119° Southeast 240 276 11,500 2,150 Climbing Toronto Center
10:09 43.2667 -78.5833 124° Southeast 220 253 13,400 1,750 Climbing Toronto Center
10:10 43.2333 -78.5333 132° Southeast 220 253 15,000 800 Climbing Toronto Center
10:11 43.1833 -78.4500 129° Southeast 260 299 15,000 250 Level Toronto Center
10:12 43.1833 -78.3333 90° East 300 345 15,500 1,750 Climbing Toronto Center
10:13 43.1667 -78.2167 101° East 260 299 18,500 2,100 Climbing Toronto Center
10:14 43.1667 -78.1500 90° East 230 265 19,700 1,300 Climbing Toronto Center
10:15 43.1500 -78.0500 103° East 240 276 21,100 1,300 Climbing Toronto Center
10:16 43.1500 -77.9667 90° East 240 276 22,300 1,150 Climbing Toronto Center
10:17 43.1500 -77.8500 90° East 250 288 23,400 1,000 Climbing Toronto Center
10:18 43.1333 -77.7667 105° East 260 299 24,300 800 Climbing Toronto Center
10:19 43.1333 -77.6667 90° East 260 299 25,000 350 Climbing Toronto Center
10:20 43.1333 -77.5500 90° East 280 322 25,000  Level Toronto Center
10:21 43.1167 -77.4333 101° East 300 345 25,000  Level Toronto Center
10:22 43.1000 -77.3333 103° East 300 345 25,000  Level Toronto Center
10:23 43.0833 -77.2167 101° East 300 345 25,000  Level Toronto Center
10:24 43.0833 -77.1000 90° East 300 345 25,000  Level Toronto Center
10:25 43.0850 -77.0378 88° East 296 341 25,000  Level Boston Center
10:26 43.0728 -76.9261 98° East 296 341 25,000  Level Boston Center
10:27 43.0647 -76.8144 96° East 296 341 25,000  Level Boston Center
10:28 43.0556 -76.7228 98° East 296 341 25,000  Level Boston Center
10:29 43.0444 -76.5772 96° East 296 341 25,000  Level Boston Center
10:30 43.0336 -76.4683 98° East 296 341 25,000  Level Boston Center
10:31 43.0208 -76.3539 99° East 296 341 25,000  Level Boston Center
10:32 43.0100 -76.2453 98° East 296 341 25,000  Level Boston Center
10:33 43.0011 -76.1339 96° East 296 341 25,000  Level Boston Center
10:35 42.9903 -76.0225 98° East 296 341 25,000  Level Boston Center
10:36 42.9756 -75.8911 99° East 296 341 25,000  Level Boston Center
10:37 42.9664 -75.7800 96° East 296 341 25,000  Level Boston Center
10:38 42.9528 -75.6686 99° East 296 341 25,000  Level Boston Center
10:39 42.9411 -75.5603 98° East 296 341 25,000 -700 Level Boston Center
10:40 42.9297 -75.4433 98° East 296 341 23,600 -1,600 Descending Boston Center
10:41 42.9183 -75.3208 97° East 301 346 21,800 -1,900 Descending Boston Center
10:42 42.9044 -75.2039 99° East 312 359 19,800 -1,934 Descending Boston Center
10:43 42.8928 -75.0844 98° East 312 359 17,900 -1,650 Descending Boston Center
10:44 42.8806 -74.9789 99° East 318 366 16,500 -1,059 Descending Boston Center
10:45 42.8683 -74.8681 99° East 307 353 15,800 -866 Descending Boston Center
10:45 42.8575 -74.7881 100° East 299 344 15,100 -1,235 Descending Boston Center
10:46 42.8528 -74.7256 96° East 308 354 14,400 -1,304 Descending Boston Center
10:47 42.8383 -74.6061 99° East 320 368 13,100 -1,548 Descending Boston Center
10:48 42.8258 -74.4842 98° East 313 360 11,200 -1,756 Descending Boston Center
10:49 42.8281 -74.3681 88° East 308 354 9,500 -1,650 Descending Boston Center
10:50 42.8361 -74.2606 84° East 302 348 7,900 -1,400 Descending Boston Center
10:51 42.8439 -74.1506 84° East 290 334 6,700 -1,150 Descending Boston Center
10:52 42.8514 -74.0628 83° East 281 323 5,600 -1,050 Descending Boston Center
10:53 42.8589 -73.9836 83° East 267 307 4,600 -1,150 Descending Boston Center
10:54 42.8647 -73.8564 86° East 260 299 3,300 -727 Descending Boston Center
10:55 42.8700 -73.7686 85° East 254 292 3,000 -578 Descending Boston Center
10:56 42.8142 -73.7250 150° Southeast 188 216 2,000 -564 Descending Boston Center
10:57 42.7706 -73.7156 171° South 161 185 1,900 -574 Descending Boston Center
10:58 42.7492 -73.7575 235° Southwest 127 146 900 -984 Descending Boston Center